Peace River Airport
CYPE : now visible

Airfield :











YOU CAN JOIN US ON...

 
LOGIN :

Register | Disclaimer

   EN    FR    IT 

 









Legend :    VFR   Marginal VFR   IFR   Intensive IFR   Very Intensive IFR
Visi :
Ceiling :
>= 8 km
>= 3000ft
5 to 8 km
1000 to 3000 ft
1500m to 5 km
500 to 1000 ft
800 to 1500m
200 to 500 ft
< 800m
< 200 ft
Symbols :   Thunderstorms  Fog  Heavy snow  Heavy precipitations  Wind > 20 kt






- Airport Elevation : 1873 ft
- IATA code : YPE


CYPE - Peace River

CURRENT METAR :
  • 310700Z 03006KT 15SM -SHRA OVC100 15/11 A2965 RMK AC8 CVCTV CLD EMBD SLP045 DENSITY ALT 2700FT

EXPIRED METARs :
  • 310600Z 09004KT 15SM -SHRA FEW060CB OVC100 17/11 A2967 RMK CB1AC7 SLP051 DENSITY ALT 2800FT
  • 310500Z 06010KT 15SM -SHRA SCT060CB OVC095 19/09 A2967 RMK CB3AC5 CB W MOVG ENE SLP050 DENSITY ALT 3100FT
  • 310430Z 09010G17KT 15SM -SHRA SCT060CB BKN100 OVC250 20/07 A2967 RMK CB4AC3CI1 CB SW SLP051 DENSITY ALT 3200FT

TAF TAF CYPE
Valid from the 31 at 07:00 until the 31 at 19:00 UTC


310638Z 3107/3119 08010KT P6SM -SHRA FEW060 OVC100
FM310900 08010KT P6SM OVC100
TEMPO 3109/3117 P6SM -SHRA
FM311700 VRB03KT P6SM -SHRA BKN040
PROB30 3117/3119 VRB30G40KT 3SM TSRA BKN020CB RMK NXT FCST BY 311300Z
CZEG FIR / North America



MET'MAP, your aeronautical weather chart ! - Copyright ORBIFLY December 2007 - Disclaimer

ORBIFLY MET'MAP TEAM :

Programming & Development : Alexandra Zaïnal
Concept & original design : Baudouin d'Aumeries
Assistance for programming : Marc-Olivier Méhu
Technical & hardware support : Manuel Goepfert

Contact : metmap@orbifly.com




SOURCES & CREDITS :

   NOAA       Earth
Advisory